sensor_id;sensor_type;location;lat;lon;timestamp;P1;durP1;ratioP1;P2;durP2;ratioP2
62693;SDS011;48759;52.544;13.418;2023-03-01T00:00:01;18.67;;;12.40;;
62693;SDS011;48759;52.544;13.418;2023-03-01T00:02:29;24.93;;;12.93;;
62693;SDS011;48759;52.544;13.418;2023-03-01T00:04:56;23.73;;;12.00;;
62693;SDS011;48759;52.544;13.418;2023-03-01T00:07:22;23.07;;;12.50;;
62693;SDS011;48759;52.544;13.418;2023-03-01T00:09:49;20.03;;;11.63;;
62693;SDS011;48759;52.544;13.418;2023-03-01T00:12:17;26.00;;;13.37;;
62693;SDS011;48759;52.544;13.418;2023-03-01T00:14:43;31.83;;;13.20;;
62693;SDS011;48759;52.544;13.418;2023-03-01T00:17:10;31.50;;;15.20;;
62693;SDS011;48759;52.544;13.418;2023-03-01T00:19:37;35.20;;;16.03;;
62693;SDS011;48759;52.544;13.418;2023-03-01T00:22:03;33.33;;;15.07;;
62693;SDS011;48759;52.544;13.418;2023-03-01T00:24:30;28.43;;;14.70;;
62693;SDS011;48759;52.544;13.418;2023-03-01T00:26:56;30.00;;;14.57;;
62693;SDS011;48759;52.544;13.418;2023-03-01T00:29:24;25.00;;;14.90;;
62693;SDS011;48759;52.544;13.418;2023-03-01T00:31:51;24.77;;;13.30;;
62693;SDS011;48759;52.544;13.418;2023-03-01T00:34:18;23.70;;;14.00;;
62693;SDS011;48759;52.544;13.418;2023-03-01T00:36:45;22.77;;;12.70;;
62693;SDS011;48759;52.544;13.418;2023-03-01T00:39:12;21.53;;;11.90;;
62693;SDS011;48759;52.544;13.418;2023-03-01T00:41:39;20.23;;;12.40;;
62693;SDS011;48759;52.544;13.418;2023-03-01T00:44:06;21.00;;;11.10;;
62693;SDS011;48759;52.544;13.418;2023-03-01T00:46:34;16.60;;;10.03;;
62693;SDS011;48759;52.544;13.418;2023-03-01T00:49:01;18.67;;;10.07;;
62693;SDS011;48759;52.544;13.418;2023-03-01T00:51:29;19.10;;;10.27;;
62693;SDS011;48759;52.544;13.418;2023-03-01T00:53:57;19.10;;;10.60;;
62693;SDS011;48759;52.544;13.418;2023-03-01T00:56:25;19.63;;;10.40;;
62693;SDS011;48759;52.544;13.418;2023-03-01T00:58:52;17.90;;;9.70;;
62693;SDS011;48759;52.544;13.418;2023-03-01T01:01:20;17.37;;;10.20;;
62693;SDS011;48759;52.544;13.418;2023-03-01T01:03:51;20.87;;;10.10;;
62693;SDS011;48759;52.544;13.418;2023-03-01T01:06:20;23.43;;;13.47;;
62693;SDS011;48759;52.544;13.418;2023-03-01T01:08:49;22.70;;;11.60;;
62693;SDS011;48759;52.544;13.418;2023-03-01T01:11:17;22.47;;;11.37;;
62693;SDS011;48759;52.544;13.418;2023-03-01T01:13:44;19.83;;;11.23;;
62693;SDS011;48759;52.544;13.418;2023-03-01T01:16:11;19.37;;;10.73;;
62693;SDS011;48759;52.544;13.418;2023-03-01T01:18:38;18.93;;;10.60;;
62693;SDS011;48759;52.544;13.418;2023-03-01T01:21:08;18.13;;;11.00;;
62693;SDS011;48759;52.544;13.418;2023-03-01T01:23:36;17.30;;;10.50;;
62693;SDS011;48759;52.544;13.418;2023-03-01T01:26:03;26.27;;;11.27;;
62693;SDS011;48759;52.544;13.418;2023-03-01T01:28:31;16.37;;;10.37;;
62693;SDS011;48759;52.544;13.418;2023-03-01T01:30:58;21.57;;;10.97;;
62693;SDS011;48759;52.544;13.418;2023-03-01T01:33:25;19.87;;;11.47;;
62693;SDS011;48759;52.544;13.418;2023-03-01T01:35:52;17.83;;;11.20;;
62693;SDS011;48759;52.544;13.418;2023-03-01T01:38:20;23.00;;;12.57;;
62693;SDS011;48759;52.544;13.418;2023-03-01T01:40:47;26.33;;;11.93;;
62693;SDS011;48759;52.544;13.418;2023-03-01T01:43:16;20.00;;;12.27;;
62693;SDS011;48759;52.544;13.418;2023-03-01T01:45:47;20.27;;;12.90;;
62693;SDS011;48759;52.544;13.418;2023-03-01T01:48:15;20.87;;;13.00;;
62693;SDS011;48759;52.544;13.418;2023-03-01T01:50:44;22.57;;;13.50;;
62693;SDS011;48759;52.544;13.418;2023-03-01T01:53:16;30.73;;;13.37;;
62693;SDS011;48759;52.544;13.418;2023-03-01T01:55:47;23.17;;;13.00;;
62693;SDS011;48759;52.544;13.418;2023-03-01T01:58:18;22.73;;;12.90;;
62693;SDS011;48759;52.544;13.418;2023-03-01T02:00:46;24.47;;;12.40;;
62693;SDS011;48759;52.544;13.418;2023-03-01T02:03:14;23.77;;;13.90;;
62693;SDS011;48759;52.544;13.418;2023-03-01T02:05:46;22.20;;;13.20;;
62693;SDS011;48759;52.544;13.418;2023-03-01T02:08:17;23.33;;;13.80;;
62693;SDS011;48759;52.544;13.418;2023-03-01T02:10:48;24.00;;;13.10;;
62693;SDS011;48759;52.544;13.418;2023-03-01T02:13:16;28.13;;;12.67;;
62693;SDS011;48759;52.544;13.418;2023-03-01T02:15:43;24.40;;;12.47;;
62693;SDS011;48759;52.544;13.418;2023-03-01T02:18:11;20.43;;;13.30;;
62693;SDS011;48759;52.544;13.418;2023-03-01T02:20:43;22.33;;;12.83;;
62693;SDS011;48759;52.544;13.418;2023-03-01T02:23:17;21.80;;;11.70;;
62693;SDS011;48759;52.544;13.418;2023-03-01T02:25:46;23.03;;;13.03;;
62693;SDS011;48759;52.544;13.418;2023-03-01T02:28:23;17.43;;;12.17;;
62693;SDS011;48759;52.544;13.418;2023-03-01T02:30:52;20.27;;;12.33;;
62693;SDS011;48759;52.544;13.418;2023-03-01T02:33:36;19.63;;;13.00;;
62693;SDS011;48759;52.544;13.418;2023-03-01T02:36:06;31.10;;;14.30;;
62693;SDS011;48759;52.544;13.418;2023-03-01T02:38:38;23.60;;;12.87;;
62693;SDS011;48759;52.544;13.418;2023-03-01T02:41:05;18.70;;;12.40;;
62693;SDS011;48759;52.544;13.418;2023-03-01T02:43:35;26.10;;;12.70;;
62693;SDS011;48759;52.544;13.418;2023-03-01T02:46:03;18.60;;;11.07;;
62693;SDS011;48759;52.544;13.418;2023-03-01T02:48:39;16.63;;;11.20;;
62693;SDS011;48759;52.544;13.418;2023-03-01T02:51:13;20.70;;;11.37;;
62693;SDS011;48759;52.544;13.418;2023-03-01T02:53:53;20.30;;;11.17;;
62693;SDS011;48759;52.544;13.418;2023-03-01T02:56:27;16.27;;;10.90;;
62693;SDS011;48759;52.544;13.418;2023-03-01T02:58:57;19.00;;;10.97;;
62693;SDS011;48759;52.544;13.418;2023-03-01T03:01:25;16.27;;;10.40;;
62693;SDS011;48759;52.544;13.418;2023-03-01T03:04:02;18.47;;;11.40;;
62693;SDS011;48759;52.544;13.418;2023-03-01T03:06:30;18.40;;;11.40;;
62693;SDS011;48759;52.544;13.418;2023-03-01T03:08:56;16.80;;;10.80;;
62693;SDS011;48759;52.544;13.418;2023-03-01T03:11:23;18.07;;;10.67;;
62693;SDS011;48759;52.544;13.418;2023-03-01T03:13:50;20.13;;;11.30;;
62693;SDS011;48759;52.544;13.418;2023-03-01T03:16:18;16.80;;;10.97;;
62693;SDS011;48759;52.544;13.418;2023-03-01T03:18:45;14.83;;;10.53;;
62693;SDS011;48759;52.544;13.418;2023-03-01T03:21:12;16.93;;;9.60;;
62693;SDS011;48759;52.544;13.418;2023-03-01T03:23:39;17.40;;;10.10;;
62693;SDS011;48759;52.544;13.418;2023-03-01T03:26:06;18.17;;;9.43;;
62693;SDS011;48759;52.544;13.418;2023-03-01T03:28:33;20.63;;;11.40;;
62693;SDS011;48759;52.544;13.418;2023-03-01T03:31:05;17.50;;;9.57;;
62693;SDS011;48759;52.544;13.418;2023-03-01T03:33:33;15.90;;;9.20;;
62693;SDS011;48759;52.544;13.418;2023-03-01T03:36:00;16.97;;;10.37;;
62693;SDS011;48759;52.544;13.418;2023-03-01T03:38:26;16.30;;;9.10;;
62693;SDS011;48759;52.544;13.418;2023-03-01T03:40:59;15.73;;;9.23;;
62693;SDS011;48759;52.544;13.418;2023-03-01T03:43:28;18.37;;;9.43;;
62693;SDS011;48759;52.544;13.418;2023-03-01T03:45:56;18.60;;;9.40;;
62693;SDS011;48759;52.544;13.418;2023-03-01T03:48:23;15.43;;;9.47;;
62693;SDS011;48759;52.544;13.418;2023-03-01T03:50:52;15.03;;;9.00;;
62693;SDS011;48759;52.544;13.418;2023-03-01T03:53:20;15.40;;;10.40;;
62693;SDS011;48759;52.544;13.418;2023-03-01T03:55:48;14.80;;;9.63;;
62693;SDS011;48759;52.544;13.418;2023-03-01T03:58:16;18.67;;;9.13;;
62693;SDS011;48759;52.544;13.418;2023-03-01T04:00:46;16.30;;;10.37;;
62693;SDS011;48759;52.544;13.418;2023-03-01T04:03:15;19.13;;;10.50;;
62693;SDS011;48759;52.544;13.418;2023-03-01T04:05:44;15.73;;;9.90;;
62693;SDS011;48759;52.544;13.418;2023-03-01T04:08:12;13.90;;;8.80;;
62693;SDS011;48759;52.544;13.418;2023-03-01T04:10:40;14.90;;;8.80;;
62693;SDS011;48759;52.544;13.418;2023-03-01T04:13:10;14.40;;;10.27;;
62693;SDS011;48759;52.544;13.418;2023-03-01T04:15:39;15.10;;;8.50;;
62693;SDS011;48759;52.544;13.418;2023-03-01T04:18:08;16.27;;;10.40;;
62693;SDS011;48759;52.544;13.418;2023-03-01T04:20:35;14.97;;;8.90;;
62693;SDS011;48759;52.544;13.418;2023-03-01T04:23:03;17.03;;;9.47;;
62693;SDS011;48759;52.544;13.418;2023-03-01T04:25:38;17.33;;;8.70;;
62693;SDS011;48759;52.544;13.418;2023-03-01T04:28:05;23.20;;;10.33;;
62693;SDS011;48759;52.544;13.418;2023-03-01T04:30:32;15.73;;;9.30;;
62693;SDS011;48759;52.544;13.418;2023-03-01T04:33:01;17.00;;;9.60;;
62693;SDS011;48759;52.544;13.418;2023-03-01T04:35:29;17.67;;;9.30;;
62693;SDS011;48759;52.544;13.418;2023-03-01T04:37:56;14.53;;;9.23;;
62693;SDS011;48759;52.544;13.418;2023-03-01T04:40:23;17.27;;;10.57;;
62693;SDS011;48759;52.544;13.418;2023-03-01T04:42:51;18.50;;;9.30;;
62693;SDS011;48759;52.544;13.418;2023-03-01T04:45:17;18.83;;;9.50;;
62693;SDS011;48759;52.544;13.418;2023-03-01T04:47:45;12.50;;;8.93;;
62693;SDS011;48759;52.544;13.418;2023-03-01T04:50:13;17.57;;;9.20;;
62693;SDS011;48759;52.544;13.418;2023-03-01T04:52:40;20.83;;;10.50;;
62693;SDS011;48759;52.544;13.418;2023-03-01T04:55:08;15.63;;;8.83;;
62693;SDS011;48759;52.544;13.418;2023-03-01T04:57:35;15.80;;;10.03;;
62693;SDS011;48759;52.544;13.418;2023-03-01T05:00:04;17.30;;;9.70;;
62693;SDS011;48759;52.544;13.418;2023-03-01T05:02:45;15.33;;;9.83;;
62693;SDS011;48759;52.544;13.418;2023-03-01T05:05:13;13.83;;;9.67;;
62693;SDS011;48759;52.544;13.418;2023-03-01T05:07:40;27.00;;;11.90;;
62693;SDS011;48759;52.544;13.418;2023-03-01T05:10:07;15.57;;;10.50;;
62693;SDS011;48759;52.544;13.418;2023-03-01T05:12:34;30.77;;;14.83;;
62693;SDS011;48759;52.544;13.418;2023-03-01T05:15:04;18.17;;;11.13;;
62693;SDS011;48759;52.544;13.418;2023-03-01T05:17:32;20.67;;;12.93;;
62693;SDS011;48759;52.544;13.418;2023-03-01T05:19:58;21.60;;;13.07;;
62693;SDS011;48759;52.544;13.418;2023-03-01T05:22:26;24.20;;;14.30;;
62693;SDS011;48759;52.544;13.418;2023-03-01T05:24:52;24.03;;;13.73;;
62693;SDS011;48759;52.544;13.418;2023-03-01T05:27:20;21.67;;;12.30;;
62693;SDS011;48759;52.544;13.418;2023-03-01T05:29:47;21.30;;;12.43;;
62693;SDS011;48759;52.544;13.418;2023-03-01T05:32:15;22.10;;;11.90;;
62693;SDS011;48759;52.544;13.418;2023-03-01T05:34:42;18.93;;;11.50;;
62693;SDS011;48759;52.544;13.418;2023-03-01T05:37:09;20.17;;;11.30;;
62693;SDS011;48759;52.544;13.418;2023-03-01T05:39:35;20.23;;;11.53;;
62693;SDS011;48759;52.544;13.418;2023-03-01T05:42:02;20.00;;;11.40;;
62693;SDS011;48759;52.544;13.418;2023-03-01T05:44:29;22.37;;;11.27;;
62693;SDS011;48759;52.544;13.418;2023-03-01T05:46:56;21.00;;;13.20;;
62693;SDS011;48759;52.544;13.418;2023-03-01T05:49:24;20.27;;;12.07;;
62693;SDS011;48759;52.544;13.418;2023-03-01T05:51:52;22.07;;;11.70;;
62693;SDS011;48759;52.544;13.418;2023-03-01T05:54:19;23.57;;;11.17;;
62693;SDS011;48759;52.544;13.418;2023-03-01T05:56:47;15.90;;;11.20;;
62693;SDS011;48759;52.544;13.418;2023-03-01T05:59:14;23.87;;;12.00;;
62693;SDS011;48759;52.544;13.418;2023-03-01T06:01:41;17.20;;;10.60;;
62693;SDS011;48759;52.544;13.418;2023-03-01T06:04:08;23.43;;;12.53;;
62693;SDS011;48759;52.544;13.418;2023-03-01T06:06:36;19.90;;;11.87;;
62693;SDS011;48759;52.544;13.418;2023-03-01T06:09:03;19.10;;;11.93;;
62693;SDS011;48759;52.544;13.418;2023-03-01T06:11:33;19.13;;;11.80;;
62693;SDS011;48759;52.544;13.418;2023-03-01T06:13:59;19.93;;;11.13;;
62693;SDS011;48759;52.544;13.418;2023-03-01T06:16:26;21.20;;;11.40;;
62693;SDS011;48759;52.544;13.418;2023-03-01T06:18:53;18.73;;;11.43;;
62693;SDS011;48759;52.544;13.418;2023-03-01T06:21:19;19.93;;;12.57;;
62693;SDS011;48759;52.544;13.418;2023-03-01T06:23:47;20.77;;;12.57;;
62693;SDS011;48759;52.544;13.418;2023-03-01T06:26:14;23.90;;;13.87;;
62693;SDS011;48759;52.544;13.418;2023-03-01T06:28:41;21.83;;;13.10;;
62693;SDS011;48759;52.544;13.418;2023-03-01T06:31:11;22.67;;;13.00;;
62693;SDS011;48759;52.544;13.418;2023-03-01T06:33:37;18.13;;;10.50;;
62693;SDS011;48759;52.544;13.418;2023-03-01T06:36:04;19.50;;;13.13;;
62693;SDS011;48759;52.544;13.418;2023-03-01T06:38:31;20.10;;;11.93;;
62693;SDS011;48759;52.544;13.418;2023-03-01T06:40:59;19.80;;;11.67;;
62693;SDS011;48759;52.544;13.418;2023-03-01T06:43:26;22.60;;;13.67;;
62693;SDS011;48759;52.544;13.418;2023-03-01T06:45:53;17.90;;;11.40;;
62693;SDS011;48759;52.544;13.418;2023-03-01T06:48:20;23.20;;;12.80;;
62693;SDS011;48759;52.544;13.418;2023-03-01T06:50:46;18.13;;;11.93;;
62693;SDS011;48759;52.544;13.418;2023-03-01T06:53:13;24.63;;;13.43;;
62693;SDS011;48759;52.544;13.418;2023-03-01T06:55:40;18.70;;;11.93;;
62693;SDS011;48759;52.544;13.418;2023-03-01T06:58:09;21.13;;;12.30;;
62693;SDS011;48759;52.544;13.418;2023-03-01T07:00:36;22.10;;;12.80;;
62693;SDS011;48759;52.544;13.418;2023-03-01T07:03:05;21.90;;;12.93;;
62693;SDS011;48759;52.544;13.418;2023-03-01T07:05:32;26.20;;;11.80;;
62693;SDS011;48759;52.544;13.418;2023-03-01T07:07:59;21.27;;;13.00;;
62693;SDS011;48759;52.544;13.418;2023-03-01T07:10:26;22.83;;;13.60;;
62693;SDS011;48759;52.544;13.418;2023-03-01T07:12:54;20.63;;;13.03;;
62693;SDS011;48759;52.544;13.418;2023-03-01T07:15:22;25.13;;;14.73;;
62693;SDS011;48759;52.544;13.418;2023-03-01T07:17:49;27.67;;;11.73;;
62693;SDS011;48759;52.544;13.418;2023-03-01T07:20:16;28.50;;;14.43;;
62693;SDS011;48759;52.544;13.418;2023-03-01T07:22:43;29.97;;;13.53;;
62693;SDS011;48759;52.544;13.418;2023-03-01T07:25:09;22.00;;;11.97;;
62693;SDS011;48759;52.544;13.418;2023-03-01T07:27:36;21.87;;;13.83;;
62693;SDS011;48759;52.544;13.418;2023-03-01T07:30:03;20.47;;;12.40;;
62693;SDS011;48759;52.544;13.418;2023-03-01T07:35:35;23.37;;;11.40;;
62693;SDS011;48759;52.544;13.418;2023-03-01T07:38:11;23.90;;;11.70;;
62693;SDS011;48759;52.544;13.418;2023-03-01T07:40:37;22.33;;;10.17;;
62693;SDS011;48759;52.544;13.418;2023-03-01T07:43:04;14.60;;;8.53;;
62693;SDS011;48759;52.544;13.418;2023-03-01T07:45:31;12.80;;;8.27;;
62693;SDS011;48759;52.544;13.418;2023-03-01T07:47:59;13.47;;;7.80;;
62693;SDS011;48759;52.544;13.418;2023-03-01T07:50:25;12.50;;;8.40;;
62693;SDS011;48759;52.544;13.418;2023-03-01T07:52:52;17.60;;;8.87;;
62693;SDS011;48759;52.544;13.418;2023-03-01T07:55:19;19.70;;;9.30;;
62693;SDS011;48759;52.544;13.418;2023-03-01T07:57:45;22.63;;;10.97;;
62693;SDS011;48759;52.544;13.418;2023-03-01T08:00:13;20.70;;;9.90;;
62693;SDS011;48759;52.544;13.418;2023-03-01T08:02:40;62.23;;;21.23;;
62693;SDS011;48759;52.544;13.418;2023-03-01T08:05:09;16.47;;;8.00;;
62693;SDS011;48759;52.544;13.418;2023-03-01T08:07:35;14.77;;;9.90;;
62693;SDS011;48759;52.544;13.418;2023-03-01T08:10:02;12.53;;;8.13;;
62693;SDS011;48759;52.544;13.418;2023-03-01T08:12:29;16.67;;;9.00;;
62693;SDS011;48759;52.544;13.418;2023-03-01T08:14:56;15.13;;;8.63;;
62693;SDS011;48759;52.544;13.418;2023-03-01T08:17:23;18.63;;;9.43;;
62693;SDS011;48759;52.544;13.418;2023-03-01T08:19:49;18.33;;;8.60;;
62693;SDS011;48759;52.544;13.418;2023-03-01T08:22:17;15.00;;;7.67;;
62693;SDS011;48759;52.544;13.418;2023-03-01T08:24:44;14.10;;;9.27;;
62693;SDS011;48759;52.544;13.418;2023-03-01T08:27:10;15.43;;;7.97;;
62693;SDS011;48759;52.544;13.418;2023-03-01T08:29:38;9.43;;;6.77;;
62693;SDS011;48759;52.544;13.418;2023-03-01T08:32:05;11.37;;;6.00;;
62693;SDS011;48759;52.544;13.418;2023-03-01T08:34:31;6.53;;;5.57;;
62693;SDS011;48759;52.544;13.418;2023-03-01T08:37:00;8.97;;;5.73;;
62693;SDS011;48759;52.544;13.418;2023-03-01T08:39:28;8.27;;;5.80;;
62693;SDS011;48759;52.544;13.418;2023-03-01T08:41:55;8.60;;;5.83;;
62693;SDS011;48759;52.544;13.418;2023-03-01T08:44:22;7.97;;;5.20;;
62693;SDS011;48759;52.544;13.418;2023-03-01T08:46:49;9.50;;;6.10;;
62693;SDS011;48759;52.544;13.418;2023-03-01T08:49:18;9.60;;;5.37;;
62693;SDS011;48759;52.544;13.418;2023-03-01T08:51:46;9.03;;;4.67;;
62693;SDS011;48759;52.544;13.418;2023-03-01T08:54:14;5.63;;;4.90;;
62693;SDS011;48759;52.544;13.418;2023-03-01T08:56:44;9.23;;;4.00;;
62693;SDS011;48759;52.544;13.418;2023-03-01T08:59:12;6.17;;;4.70;;
62693;SDS011;48759;52.544;13.418;2023-03-01T09:01:40;10.30;;;4.60;;
62693;SDS011;48759;52.544;13.418;2023-03-01T09:04:11;8.30;;;5.17;;
62693;SDS011;48759;52.544;13.418;2023-03-01T09:06:38;10.63;;;4.90;;
62693;SDS011;48759;52.544;13.418;2023-03-01T09:09:05;8.67;;;5.43;;
62693;SDS011;48759;52.544;13.418;2023-03-01T09:11:34;6.80;;;3.93;;
62693;SDS011;48759;52.544;13.418;2023-03-01T09:14:04;8.83;;;4.73;;
62693;SDS011;48759;52.544;13.418;2023-03-01T09:16:31;7.77;;;4.97;;
62693;SDS011;48759;52.544;13.418;2023-03-01T09:19:00;6.30;;;5.20;;
62693;SDS011;48759;52.544;13.418;2023-03-01T09:21:28;6.73;;;4.90;;
62693;SDS011;48759;52.544;13.418;2023-03-01T09:23:55;8.40;;;5.73;;
62693;SDS011;48759;52.544;13.418;2023-03-01T09:26:23;6.93;;;5.47;;
62693;SDS011;48759;52.544;13.418;2023-03-01T09:28:50;11.80;;;5.97;;
62693;SDS011;48759;52.544;13.418;2023-03-01T09:31:20;12.37;;;5.80;;
62693;SDS011;48759;52.544;13.418;2023-03-01T09:33:48;8.47;;;5.20;;
62693;SDS011;48759;52.544;13.418;2023-03-01T09:36:17;7.30;;;5.43;;
62693;SDS011;48759;52.544;13.418;2023-03-01T09:38:47;6.70;;;4.60;;
62693;SDS011;48759;52.544;13.418;2023-03-01T09:41:18;8.40;;;4.03;;
62693;SDS011;48759;52.544;13.418;2023-03-01T09:43:59;7.20;;;3.60;;
62693;SDS011;48759;52.544;13.418;2023-03-01T09:46:31;6.43;;;4.20;;
62693;SDS011;48759;52.544;13.418;2023-03-01T09:49:09;5.90;;;4.10;;
62693;SDS011;48759;52.544;13.418;2023-03-01T09:51:38;8.33;;;4.77;;
62693;SDS011;48759;52.544;13.418;2023-03-01T09:54:05;8.50;;;5.10;;
62693;SDS011;48759;52.544;13.418;2023-03-01T09:56:33;8.03;;;5.10;;
62693;SDS011;48759;52.544;13.418;2023-03-01T09:59:05;7.77;;;3.77;;
62693;SDS011;48759;52.544;13.418;2023-03-01T10:01:48;8.40;;;3.77;;
62693;SDS011;48759;52.544;13.418;2023-03-01T10:04:29;7.57;;;3.50;;
62693;SDS011;48759;52.544;13.418;2023-03-01T10:07:14;4.90;;;3.67;;
62693;SDS011;48759;52.544;13.418;2023-03-01T10:09:47;7.83;;;3.20;;
62693;SDS011;48759;52.544;13.418;2023-03-01T10:12:15;3.43;;;3.13;;
62693;SDS011;48759;52.544;13.418;2023-03-01T10:14:46;6.23;;;3.77;;
62693;SDS011;48759;52.544;13.418;2023-03-01T10:17:25;4.50;;;3.33;;
62693;SDS011;48759;52.544;13.418;2023-03-01T10:19:56;4.07;;;3.23;;
62693;SDS011;48759;52.544;13.418;2023-03-01T10:22:40;3.73;;;3.43;;
62693;SDS011;48759;52.544;13.418;2023-03-01T10:25:08;4.80;;;3.30;;
62693;SDS011;48759;52.544;13.418;2023-03-01T10:27:42;6.67;;;3.27;;
62693;SDS011;48759;52.544;13.418;2023-03-01T10:30:16;6.00;;;2.90;;
62693;SDS011;48759;52.544;13.418;2023-03-01T10:32:47;4.57;;;2.90;;
62693;SDS011;48759;52.544;13.418;2023-03-01T10:35:17;7.07;;;2.90;;
62693;SDS011;48759;52.544;13.418;2023-03-01T10:40:34;4.30;;;3.30;;
62693;SDS011;48759;52.544;13.418;2023-03-01T10:43:02;7.83;;;3.83;;
62693;SDS011;48759;52.544;13.418;2023-03-01T10:45:32;7.87;;;3.90;;
62693;SDS011;48759;52.544;13.418;2023-03-01T10:48:06;7.33;;;3.03;;
62693;SDS011;48759;52.544;13.418;2023-03-01T10:50:38;4.03;;;3.33;;
62693;SDS011;48759;52.544;13.418;2023-03-01T10:53:09;4.50;;;3.33;;
62693;SDS011;48759;52.544;13.418;2023-03-01T10:55:48;6.03;;;4.00;;
62693;SDS011;48759;52.544;13.418;2023-03-01T10:58:24;5.50;;;3.40;;
62693;SDS011;48759;52.544;13.418;2023-03-01T11:00:53;7.20;;;3.40;;
62693;SDS011;48759;52.544;13.418;2023-03-01T11:03:25;4.67;;;3.03;;
62693;SDS011;48759;52.544;13.418;2023-03-01T11:05:58;8.30;;;3.00;;
62693;SDS011;48759;52.544;13.418;2023-03-01T11:08:31;4.77;;;3.10;;
62693;SDS011;48759;52.544;13.418;2023-03-01T11:11:03;3.80;;;3.17;;
62693;SDS011;48759;52.544;13.418;2023-03-01T11:13:33;4.40;;;3.60;;
62693;SDS011;48759;52.544;13.418;2023-03-01T11:16:02;7.77;;;3.77;;
62693;SDS011;48759;52.544;13.418;2023-03-01T11:18:32;4.77;;;3.53;;
62693;SDS011;48759;52.544;13.418;2023-03-01T11:20:59;3.63;;;3.07;;
62693;SDS011;48759;52.544;13.418;2023-03-01T11:23:28;4.83;;;3.10;;
62693;SDS011;48759;52.544;13.418;2023-03-01T11:25:56;6.07;;;3.70;;
62693;SDS011;48759;52.544;13.418;2023-03-01T11:28:27;7.37;;;3.70;;
62693;SDS011;48759;52.544;13.418;2023-03-01T11:30:55;4.00;;;3.57;;
62693;SDS011;48759;52.544;13.418;2023-03-01T11:33:31;5.70;;;3.30;;
62693;SDS011;48759;52.544;13.418;2023-03-01T11:36:07;5.27;;;2.87;;
62693;SDS011;48759;52.544;13.418;2023-03-01T11:38:42;11.40;;;5.50;;
62693;SDS011;48759;52.544;13.418;2023-03-01T11:41:11;9.17;;;6.10;;
62693;SDS011;48759;52.544;13.418;2023-03-01T11:43:44;6.73;;;3.57;;
62693;SDS011;48759;52.544;13.418;2023-03-01T11:49:25;7.40;;;3.73;;
62693;SDS011;48759;52.544;13.418;2023-03-01T11:52:15;5.83;;;3.30;;
62693;SDS011;48759;52.544;13.418;2023-03-01T11:54:57;4.33;;;3.87;;
62693;SDS011;48759;52.544;13.418;2023-03-01T11:57:38;28.50;;;12.87;;
62693;SDS011;48759;52.544;13.418;2023-03-01T12:00:23;12.80;;;6.40;;
62693;SDS011;48759;52.544;13.418;2023-03-01T12:03:15;4.97;;;3.53;;
62693;SDS011;48759;52.544;13.418;2023-03-01T12:06:14;9.67;;;4.10;;
62693;SDS011;48759;52.544;13.418;2023-03-01T12:08:54;6.07;;;3.40;;
62693;SDS011;48759;52.544;13.418;2023-03-01T12:11:34;10.97;;;4.00;;
62693;SDS011;48759;52.544;13.418;2023-03-01T12:17:14;9.60;;;4.67;;
62693;SDS011;48759;52.544;13.418;2023-03-01T12:20:07;7.50;;;4.87;;
62693;SDS011;48759;52.544;13.418;2023-03-01T12:22:48;4.17;;;3.73;;
62693;SDS011;48759;52.544;13.418;2023-03-01T12:25:30;4.17;;;3.10;;
62693;SDS011;48759;52.544;13.418;2023-03-01T12:28:13;5.40;;;3.37;;
62693;SDS011;48759;52.544;13.418;2023-03-01T12:30:55;3.63;;;3.33;;
62693;SDS011;48759;52.544;13.418;2023-03-01T12:33:39;3.40;;;2.90;;
62693;SDS011;48759;52.544;13.418;2023-03-01T12:39:11;3.40;;;3.10;;
62693;SDS011;48759;52.544;13.418;2023-03-01T12:41:52;8.40;;;2.97;;
62693;SDS011;48759;52.544;13.418;2023-03-01T12:47:17;3.67;;;3.33;;
62693;SDS011;48759;52.544;13.418;2023-03-01T12:49:49;5.80;;;3.60;;
62693;SDS011;48759;52.544;13.418;2023-03-01T12:52:22;7.20;;;3.33;;
62693;SDS011;48759;52.544;13.418;2023-03-01T12:54:56;5.17;;;3.30;;
62693;SDS011;48759;52.544;13.418;2023-03-01T12:57:28;3.43;;;2.70;;
62693;SDS011;48759;52.544;13.418;2023-03-01T13:00:04;4.83;;;3.40;;
62693;SDS011;48759;52.544;13.418;2023-03-01T13:02:45;5.67;;;3.47;;
62693;SDS011;48759;52.544;13.418;2023-03-01T13:05:27;3.73;;;3.20;;
62693;SDS011;48759;52.544;13.418;2023-03-01T13:08:06;5.53;;;3.30;;
62693;SDS011;48759;52.544;13.418;2023-03-01T13:10:43;3.97;;;2.97;;
62693;SDS011;48759;52.544;13.418;2023-03-01T13:13:19;3.50;;;3.00;;
62693;SDS011;48759;52.544;13.418;2023-03-01T13:15:47;3.20;;;2.90;;
62693;SDS011;48759;52.544;13.418;2023-03-01T13:18:32;3.10;;;2.73;;
62693;SDS011;48759;52.544;13.418;2023-03-01T13:21:00;3.57;;;2.97;;
62693;SDS011;48759;52.544;13.418;2023-03-01T13:23:31;4.23;;;3.33;;
62693;SDS011;48759;52.544;13.418;2023-03-01T13:26:03;3.47;;;3.17;;
62693;SDS011;48759;52.544;13.418;2023-03-01T13:28:37;2.50;;;2.30;;
62693;SDS011;48759;52.544;13.418;2023-03-01T13:37:19;3.83;;;2.73;;
62693;SDS011;48759;52.544;13.418;2023-03-01T13:40:03;3.13;;;2.70;;
62693;SDS011;48759;52.544;13.418;2023-03-01T13:42:37;9.97;;;2.67;;
62693;SDS011;48759;52.544;13.418;2023-03-01T13:45:20;3.70;;;2.77;;
62693;SDS011;48759;52.544;13.418;2023-03-01T13:47:50;13.63;;;3.27;;
62693;SDS011;48759;52.544;13.418;2023-03-01T13:50:23;3.03;;;2.73;;
62693;SDS011;48759;52.544;13.418;2023-03-01T13:52:53;5.13;;;3.17;;
62693;SDS011;48759;52.544;13.418;2023-03-01T13:55:24;4.80;;;2.90;;
62693;SDS011;48759;52.544;13.418;2023-03-01T13:57:57;4.10;;;2.73;;
62693;SDS011;48759;52.544;13.418;2023-03-01T14:00:28;12.03;;;2.83;;
62693;SDS011;48759;52.544;13.418;2023-03-01T14:03:04;14.67;;;3.23;;
62693;SDS011;48759;52.544;13.418;2023-03-01T14:05:36;4.03;;;2.93;;
62693;SDS011;48759;52.544;13.418;2023-03-01T14:08:04;4.47;;;2.73;;
62693;SDS011;48759;52.544;13.418;2023-03-01T14:10:35;6.83;;;3.10;;
62693;SDS011;48759;52.544;13.418;2023-03-01T14:13:17;5.07;;;2.60;;
62693;SDS011;48759;52.544;13.418;2023-03-01T14:16:00;6.00;;;5.27;;
62693;SDS011;48759;52.544;13.418;2023-03-01T14:18:39;5.90;;;3.77;;
62693;SDS011;48759;52.544;13.418;2023-03-01T14:21:13;4.20;;;3.60;;
62693;SDS011;48759;52.544;13.418;2023-03-01T14:23:41;3.03;;;2.73;;
62693;SDS011;48759;52.544;13.418;2023-03-01T14:26:08;3.83;;;3.43;;
62693;SDS011;48759;52.544;13.418;2023-03-01T14:28:38;3.20;;;2.90;;
62693;SDS011;48759;52.544;13.418;2023-03-01T14:33:59;5.20;;;3.10;;
62693;SDS011;48759;52.544;13.418;2023-03-01T14:36:26;4.20;;;3.30;;
62693;SDS011;48759;52.544;13.418;2023-03-01T14:38:53;4.10;;;2.70;;
62693;SDS011;48759;52.544;13.418;2023-03-01T14:41:21;4.03;;;3.20;;
62693;SDS011;48759;52.544;13.418;2023-03-01T14:43:52;3.37;;;3.07;;
62693;SDS011;48759;52.544;13.418;2023-03-01T14:46:26;4.17;;;3.17;;
62693;SDS011;48759;52.544;13.418;2023-03-01T14:48:58;4.03;;;2.87;;
62693;SDS011;48759;52.544;13.418;2023-03-01T14:51:29;4.80;;;3.10;;
62693;SDS011;48759;52.544;13.418;2023-03-01T14:53:56;5.87;;;3.33;;
62693;SDS011;48759;52.544;13.418;2023-03-01T14:56:23;4.53;;;3.07;;
62693;SDS011;48759;52.544;13.418;2023-03-01T14:58:52;5.90;;;3.23;;
62693;SDS011;48759;52.544;13.418;2023-03-01T15:01:23;7.03;;;3.03;;
62693;SDS011;48759;52.544;13.418;2023-03-01T15:03:50;6.80;;;4.40;;